Airport View

Enter AWOS ICAO identifier for current METAR.

ex. KFNL

KBLU 080452Z AUTO 00000KT 10SM CLR 18/09 A3016 RMK AO2 SLP128 T01830094 $

8 Aug 2020 05:55

Frequency: 120.075

Phone: 530-389-2091

Other Area AWOS: KGOO - KAUN - KTRK - KPVF

TAF KTRK 072320Z 0800/0824 26008KT P6SM VCTS SCT080CB FM080300 VRB03KT P6SM SKC